sensor_id;sensor_type;location;lat;lon;timestamp;temperature;humidity
13835;DHT22;6988;52.614;13.500;2022-12-07T00:03:39;3.40;99.90
13835;DHT22;6988;52.614;13.500;2022-12-07T00:08:34;3.30;99.90
13835;DHT22;6988;52.614;13.500;2022-12-07T00:13:26;3.20;99.90
13835;DHT22;6988;52.614;13.500;2022-12-07T00:18:18;3.10;99.90
13835;DHT22;6988;52.614;13.500;2022-12-07T00:23:11;3.00;99.90
13835;DHT22;6988;52.614;13.500;2022-12-07T00:28:03;3.00;99.90
13835;DHT22;6988;52.614;13.500;2022-12-07T00:32:55;3.00;99.90
13835;DHT22;6988;52.614;13.500;2022-12-07T00:37:47;2.90;99.90
13835;DHT22;6988;52.614;13.500;2022-12-07T00:42:41;2.80;99.90
13835;DHT22;6988;52.614;13.500;2022-12-07T00:47:33;2.80;99.90
13835;DHT22;6988;52.614;13.500;2022-12-07T00:52:25;2.70;99.90
13835;DHT22;6988;52.614;13.500;2022-12-07T00:57:17;2.70;99.90
13835;DHT22;6988;52.614;13.500;2022-12-07T01:02:10;2.70;99.90
13835;DHT22;6988;52.614;13.500;2022-12-07T01:07:02;2.70;99.90
13835;DHT22;6988;52.614;13.500;2022-12-07T01:11:54;2.60;99.90
13835;DHT22;6988;52.614;13.500;2022-12-07T01:16:46;2.60;99.90
13835;DHT22;6988;52.614;13.500;2022-12-07T01:21:39;2.60;99.90
13835;DHT22;6988;52.614;13.500;2022-12-07T01:26:31;2.50;99.90
13835;DHT22;6988;52.614;13.500;2022-12-07T01:31:24;2.40;99.90
13835;DHT22;6988;52.614;13.500;2022-12-07T01:36:19;2.40;99.90
13835;DHT22;6988;52.614;13.500;2022-12-07T01:41:15;2.30;99.90
13835;DHT22;6988;52.614;13.500;2022-12-07T01:46:09;2.30;99.90
13835;DHT22;6988;52.614;13.500;2022-12-07T01:51:03;2.30;99.90
13835;DHT22;6988;52.614;13.500;2022-12-07T01:56:00;2.30;99.90
13835;DHT22;6988;52.614;13.500;2022-12-07T02:00:53;2.30;99.90
13835;DHT22;6988;52.614;13.500;2022-12-07T02:05:46;2.30;99.90
13835;DHT22;6988;52.614;13.500;2022-12-07T02:10:40;2.30;99.90
13835;DHT22;6988;52.614;13.500;2022-12-07T02:15:41;2.20;99.90
13835;DHT22;6988;52.614;13.500;2022-12-07T02:20:46;2.20;99.90
13835;DHT22;6988;52.614;13.500;2022-12-07T02:25:58;2.20;99.90
13835;DHT22;6988;52.614;13.500;2022-12-07T02:31:11;2.20;99.90
13835;DHT22;6988;52.614;13.500;2022-12-07T02:36:10;2.10;99.90
13835;DHT22;6988;52.614;13.500;2022-12-07T02:41:10;2.10;99.90
13835;DHT22;6988;52.614;13.500;2022-12-07T02:46:09;2.00;99.90
13835;DHT22;6988;52.614;13.500;2022-12-07T02:51:04;2.00;99.90
13835;DHT22;6988;52.614;13.500;2022-12-07T02:55:56;2.00;99.90
13835;DHT22;6988;52.614;13.500;2022-12-07T03:00:58;2.00;99.90
13835;DHT22;6988;52.614;13.500;2022-12-07T03:06:11;1.90;99.90
13835;DHT22;6988;52.614;13.500;2022-12-07T03:11:14;1.90;99.90
13835;DHT22;6988;52.614;13.500;2022-12-07T03:16:16;1.90;99.90
13835;DHT22;6988;52.614;13.500;2022-12-07T03:21:14;1.90;99.90
13835;DHT22;6988;52.614;13.500;2022-12-07T03:26:12;1.90;99.90
13835;DHT22;6988;52.614;13.500;2022-12-07T03:31:10;1.90;99.90
13835;DHT22;6988;52.614;13.500;2022-12-07T03:36:12;1.90;99.90
13835;DHT22;6988;52.614;13.500;2022-12-07T03:41:16;1.90;99.90
13835;DHT22;6988;52.614;13.500;2022-12-07T03:46:20;2.00;99.90
13835;DHT22;6988;52.614;13.500;2022-12-07T03:51:22;2.00;99.90
13835;DHT22;6988;52.614;13.500;2022-12-07T03:56:19;2.00;99.90
13835;DHT22;6988;52.614;13.500;2022-12-07T04:01:13;2.00;99.90
13835;DHT22;6988;52.614;13.500;2022-12-07T04:06:06;2.10;99.90
13835;DHT22;6988;52.614;13.500;2022-12-07T04:10:58;2.10;99.90
13835;DHT22;6988;52.614;13.500;2022-12-07T04:15:50;2.20;99.90
13835;DHT22;6988;52.614;13.500;2022-12-07T04:20:42;2.20;99.90
13835;DHT22;6988;52.614;13.500;2022-12-07T04:25:35;2.10;99.90
13835;DHT22;6988;52.614;13.500;2022-12-07T04:30:27;2.20;99.90
13835;DHT22;6988;52.614;13.500;2022-12-07T04:35:18;2.20;99.90
13835;DHT22;6988;52.614;13.500;2022-12-07T04:40:11;2.30;99.90
13835;DHT22;6988;52.614;13.500;2022-12-07T04:45:07;2.40;99.90
13835;DHT22;6988;52.614;13.500;2022-12-07T04:49:59;2.40;99.90
13835;DHT22;6988;52.614;13.500;2022-12-07T04:54:51;2.40;99.90
13835;DHT22;6988;52.614;13.500;2022-12-07T04:59:43;2.50;99.90
13835;DHT22;6988;52.614;13.500;2022-12-07T05:04:36;2.50;99.90
13835;DHT22;6988;52.614;13.500;2022-12-07T05:09:28;2.50;99.90
13835;DHT22;6988;52.614;13.500;2022-12-07T05:14:21;2.50;99.90
13835;DHT22;6988;52.614;13.500;2022-12-07T05:19:12;2.50;99.90
13835;DHT22;6988;52.614;13.500;2022-12-07T05:24:09;2.60;99.90
13835;DHT22;6988;52.614;13.500;2022-12-07T05:29:03;2.60;99.90
13835;DHT22;6988;52.614;13.500;2022-12-07T05:33:54;2.60;99.90
13835;DHT22;6988;52.614;13.500;2022-12-07T05:38:46;2.70;99.90
13835;DHT22;6988;52.614;13.500;2022-12-07T05:43:39;2.70;99.90
13835;DHT22;6988;52.614;13.500;2022-12-07T05:48:31;2.70;99.90
13835;DHT22;6988;52.614;13.500;2022-12-07T05:53:24;2.70;99.90
13835;DHT22;6988;52.614;13.500;2022-12-07T05:58:16;2.80;99.90
13835;DHT22;6988;52.614;13.500;2022-12-07T06:03:26;2.80;99.90
13835;DHT22;6988;52.614;13.500;2022-12-07T06:08:18;2.90;99.90
13835;DHT22;6988;52.614;13.500;2022-12-07T06:13:10;2.90;99.90
13835;DHT22;6988;52.614;13.500;2022-12-07T06:18:02;2.90;99.90
13835;DHT22;6988;52.614;13.500;2022-12-07T06:22:56;3.00;99.90
13835;DHT22;6988;52.614;13.500;2022-12-07T06:27:47;3.00;99.90
13835;DHT22;6988;52.614;13.500;2022-12-07T06:32:39;3.00;99.90
13835;DHT22;6988;52.614;13.500;2022-12-07T06:37:31;3.00;99.90
13835;DHT22;6988;52.614;13.500;2022-12-07T06:42:24;3.10;99.90
13835;DHT22;6988;52.614;13.500;2022-12-07T06:47:16;3.10;99.90
13835;DHT22;6988;52.614;13.500;2022-12-07T06:52:08;3.10;99.90
13835;DHT22;6988;52.614;13.500;2022-12-07T06:56:59;3.00;99.90
13835;DHT22;6988;52.614;13.500;2022-12-07T07:01:53;3.10;99.90
13835;DHT22;6988;52.614;13.500;2022-12-07T07:06:44;3.10;99.90
13835;DHT22;6988;52.614;13.500;2022-12-07T07:11:37;3.20;99.90
13835;DHT22;6988;52.614;13.500;2022-12-07T07:16:29;3.20;99.90
13835;DHT22;6988;52.614;13.500;2022-12-07T07:21:23;3.30;99.90
13835;DHT22;6988;52.614;13.500;2022-12-07T07:26:15;3.30;99.90
13835;DHT22;6988;52.614;13.500;2022-12-07T07:31:06;3.30;99.90
13835;DHT22;6988;52.614;13.500;2022-12-07T07:35:58;3.30;99.90
13835;DHT22;6988;52.614;13.500;2022-12-07T07:40:51;3.40;99.90
13835;DHT22;6988;52.614;13.500;2022-12-07T07:45:44;3.40;99.90
13835;DHT22;6988;52.614;13.500;2022-12-07T07:50:37;3.50;99.90
13835;DHT22;6988;52.614;13.500;2022-12-07T07:55:28;3.60;99.90
13835;DHT22;6988;52.614;13.500;2022-12-07T08:00:22;3.60;99.90
13835;DHT22;6988;52.614;13.500;2022-12-07T08:05:15;3.70;99.90
13835;DHT22;6988;52.614;13.500;2022-12-07T08:10:09;3.70;99.90
13835;DHT22;6988;52.614;13.500;2022-12-07T08:15:03;3.70;99.90
13835;DHT22;6988;52.614;13.500;2022-12-07T08:19:57;3.70;99.90
13835;DHT22;6988;52.614;13.500;2022-12-07T08:24:49;3.70;99.90
13835;DHT22;6988;52.614;13.500;2022-12-07T08:29:41;3.70;99.90
13835;DHT22;6988;52.614;13.500;2022-12-07T08:34:33;3.80;99.90
13835;DHT22;6988;52.614;13.500;2022-12-07T08:39:26;3.90;99.90
13835;DHT22;6988;52.614;13.500;2022-12-07T08:44:18;3.90;99.90
13835;DHT22;6988;52.614;13.500;2022-12-07T08:49:12;3.90;99.90
13835;DHT22;6988;52.614;13.500;2022-12-07T08:54:11;3.80;99.90
13835;DHT22;6988;52.614;13.500;2022-12-07T08:59:07;3.80;99.90
13835;DHT22;6988;52.614;13.500;2022-12-07T09:03:59;3.80;99.90
13835;DHT22;6988;52.614;13.500;2022-12-07T09:08:54;3.90;99.90
13835;DHT22;6988;52.614;13.500;2022-12-07T09:13:49;3.90;99.90
13835;DHT22;6988;52.614;13.500;2022-12-07T09:18:42;3.90;99.90
13835;DHT22;6988;52.614;13.500;2022-12-07T09:23:34;4.00;99.90
13835;DHT22;6988;52.614;13.500;2022-12-07T09:28:26;4.00;99.90
13835;DHT22;6988;52.614;13.500;2022-12-07T09:33:18;4.00;99.90
13835;DHT22;6988;52.614;13.500;2022-12-07T09:38:12;3.90;99.90
13835;DHT22;6988;52.614;13.500;2022-12-07T09:43:04;3.90;99.90
13835;DHT22;6988;52.614;13.500;2022-12-07T09:47:57;3.90;99.90
13835;DHT22;6988;52.614;13.500;2022-12-07T09:52:50;3.90;99.90
13835;DHT22;6988;52.614;13.500;2022-12-07T09:57:47;3.90;99.90
13835;DHT22;6988;52.614;13.500;2022-12-07T10:02:43;3.90;99.90
13835;DHT22;6988;52.614;13.500;2022-12-07T10:07:37;3.80;99.90
13835;DHT22;6988;52.614;13.500;2022-12-07T10:12:30;3.70;99.90
13835;DHT22;6988;52.614;13.500;2022-12-07T10:17:39;3.70;99.90
13835;DHT22;6988;52.614;13.500;2022-12-07T10:22:34;3.70;99.90
13835;DHT22;6988;52.614;13.500;2022-12-07T10:27:29;3.70;99.90
13835;DHT22;6988;52.614;13.500;2022-12-07T10:32:31;3.70;99.90
13835;DHT22;6988;52.614;13.500;2022-12-07T10:37:26;3.60;99.90
13835;DHT22;6988;52.614;13.500;2022-12-07T10:42:20;3.60;99.90
13835;DHT22;6988;52.614;13.500;2022-12-07T10:47:27;3.50;99.90
13835;DHT22;6988;52.614;13.500;2022-12-07T10:52:45;3.50;99.90
13835;DHT22;6988;52.614;13.500;2022-12-07T10:58:09;3.50;99.90
13835;DHT22;6988;52.614;13.500;2022-12-07T11:03:25;3.60;99.90
13835;DHT22;6988;52.614;13.500;2022-12-07T11:08:44;3.70;99.90
13835;DHT22;6988;52.614;13.500;2022-12-07T11:13:50;3.80;99.90
13835;DHT22;6988;52.614;13.500;2022-12-07T11:24:50;3.90;99.90
13835;DHT22;6988;52.614;13.500;2022-12-07T11:30:11;3.90;99.90
13835;DHT22;6988;52.614;13.500;2022-12-07T11:35:11;3.90;99.90
13835;DHT22;6988;52.614;13.500;2022-12-07T11:40:20;3.90;99.90
13835;DHT22;6988;52.614;13.500;2022-12-07T11:45:22;3.80;99.90
13835;DHT22;6988;52.614;13.500;2022-12-07T11:50:25;3.80;99.90
13835;DHT22;6988;52.614;13.500;2022-12-07T11:55:27;3.80;99.90
13835;DHT22;6988;52.614;13.500;2022-12-07T12:00:23;3.80;99.90
13835;DHT22;6988;52.614;13.500;2022-12-07T12:05:17;3.80;99.90
13835;DHT22;6988;52.614;13.500;2022-12-07T12:10:19;4.00;99.90
13835;DHT22;6988;52.614;13.500;2022-12-07T12:15:38;4.00;99.90
13835;DHT22;6988;52.614;13.500;2022-12-07T12:20:46;4.00;99.90
13835;DHT22;6988;52.614;13.500;2022-12-07T12:25:46;4.10;99.90
13835;DHT22;6988;52.614;13.500;2022-12-07T12:30:41;4.10;99.90
13835;DHT22;6988;52.614;13.500;2022-12-07T12:35:34;4.10;99.90
13835;DHT22;6988;52.614;13.500;2022-12-07T12:40:44;4.10;99.90
13835;DHT22;6988;52.614;13.500;2022-12-07T12:45:36;4.10;99.90
13835;DHT22;6988;52.614;13.500;2022-12-07T12:50:30;4.20;99.90
13835;DHT22;6988;52.614;13.500;2022-12-07T13:01:50;4.20;99.90
13835;DHT22;6988;52.614;13.500;2022-12-07T13:06:43;4.20;99.90
13835;DHT22;6988;52.614;13.500;2022-12-07T13:11:39;4.30;99.90
13835;DHT22;6988;52.614;13.500;2022-12-07T13:16:39;4.30;99.90
13835;DHT22;6988;52.614;13.500;2022-12-07T13:21:43;4.40;99.90
13835;DHT22;6988;52.614;13.500;2022-12-07T13:26:37;4.30;99.90
13835;DHT22;6988;52.614;13.500;2022-12-07T13:31:33;4.20;99.90
13835;DHT22;6988;52.614;13.500;2022-12-07T13:36:30;4.20;99.90
13835;DHT22;6988;52.614;13.500;2022-12-07T13:41:28;4.20;99.90
13835;DHT22;6988;52.614;13.500;2022-12-07T13:46:26;4.10;99.90
13835;DHT22;6988;52.614;13.500;2022-12-07T13:51:25;4.10;99.90
13835;DHT22;6988;52.614;13.500;2022-12-07T13:56:22;4.10;99.90
13835;DHT22;6988;52.614;13.500;2022-12-07T14:01:19;4.10;99.90
13835;DHT22;6988;52.614;13.500;2022-12-07T14:06:23;4.10;99.90
13835;DHT22;6988;52.614;13.500;2022-12-07T14:11:20;4.00;99.90
13835;DHT22;6988;52.614;13.500;2022-12-07T14:16:24;4.00;99.90
13835;DHT22;6988;52.614;13.500;2022-12-07T14:21:21;4.00;99.90
13835;DHT22;6988;52.614;13.500;2022-12-07T14:26:16;3.90;99.90
13835;DHT22;6988;52.614;13.500;2022-12-07T14:31:14;3.90;99.90
13835;DHT22;6988;52.614;13.500;2022-12-07T14:36:11;3.90;99.90
13835;DHT22;6988;52.614;13.500;2022-12-07T14:41:04;3.80;99.90
13835;DHT22;6988;52.614;13.500;2022-12-07T14:46:15;3.80;99.90
13835;DHT22;6988;52.614;13.500;2022-12-07T14:51:10;3.80;99.90
13835;DHT22;6988;52.614;13.500;2022-12-07T14:56:04;3.70;99.90
13835;DHT22;6988;52.614;13.500;2022-12-07T15:00:57;3.50;99.90
13835;DHT22;6988;52.614;13.500;2022-12-07T15:05:48;3.40;99.90
13835;DHT22;6988;52.614;13.500;2022-12-07T15:10:42;3.30;99.90
13835;DHT22;6988;52.614;13.500;2022-12-07T15:15:34;3.20;99.90
13835;DHT22;6988;52.614;13.500;2022-12-07T15:20:25;3.30;99.90
13835;DHT22;6988;52.614;13.500;2022-12-07T15:25:17;3.30;99.90
13835;DHT22;6988;52.614;13.500;2022-12-07T15:30:11;3.50;99.90
13835;DHT22;6988;52.614;13.500;2022-12-07T15:35:03;3.60;99.90
13835;DHT22;6988;52.614;13.500;2022-12-07T15:39:56;3.60;99.90
13835;DHT22;6988;52.614;13.500;2022-12-07T15:44:47;3.50;99.90
13835;DHT22;6988;52.614;13.500;2022-12-07T15:49:59;3.50;99.90
13835;DHT22;6988;52.614;13.500;2022-12-07T15:54:50;3.50;99.90
13835;DHT22;6988;52.614;13.500;2022-12-07T15:59:42;3.50;99.90
13835;DHT22;6988;52.614;13.500;2022-12-07T16:04:34;3.50;99.90
13835;DHT22;6988;52.614;13.500;2022-12-07T16:09:27;3.50;99.90
13835;DHT22;6988;52.614;13.500;2022-12-07T16:14:19;3.40;99.90
13835;DHT22;6988;52.614;13.500;2022-12-07T16:19:12;3.00;99.90
13835;DHT22;6988;52.614;13.500;2022-12-07T16:24:05;2.60;99.90
13835;DHT22;6988;52.614;13.500;2022-12-07T16:28:59;2.30;99.90
13835;DHT22;6988;52.614;13.500;2022-12-07T16:33:54;2.20;99.90
13835;DHT22;6988;52.614;13.500;2022-12-07T16:38:47;2.10;99.90
13835;DHT22;6988;52.614;13.500;2022-12-07T16:43:39;2.10;99.90
13835;DHT22;6988;52.614;13.500;2022-12-07T16:48:35;2.10;99.90
13835;DHT22;6988;52.614;13.500;2022-12-07T16:53:28;2.20;99.90
13835;DHT22;6988;52.614;13.500;2022-12-07T16:58:19;2.20;99.90
13835;DHT22;6988;52.614;13.500;2022-12-07T17:03:11;2.20;99.90
13835;DHT22;6988;52.614;13.500;2022-12-07T17:08:05;2.30;99.90
13835;DHT22;6988;52.614;13.500;2022-12-07T17:12:58;2.40;99.90
13835;DHT22;6988;52.614;13.500;2022-12-07T17:17:53;2.30;99.90
13835;DHT22;6988;52.614;13.500;2022-12-07T17:22:47;2.30;99.90
13835;DHT22;6988;52.614;13.500;2022-12-07T17:27:41;2.30;99.90
13835;DHT22;6988;52.614;13.500;2022-12-07T17:32:33;2.30;99.90
13835;DHT22;6988;52.614;13.500;2022-12-07T17:37:25;2.20;99.90
13835;DHT22;6988;52.614;13.500;2022-12-07T17:42:17;2.30;99.90
13835;DHT22;6988;52.614;13.500;2022-12-07T17:47:28;2.30;99.90
13835;DHT22;6988;52.614;13.500;2022-12-07T17:52:20;2.20;99.90
13835;DHT22;6988;52.614;13.500;2022-12-07T17:57:30;2.20;99.90
13835;DHT22;6988;52.614;13.500;2022-12-07T18:02:23;2.20;99.90
13835;DHT22;6988;52.614;13.500;2022-12-07T18:07:17;2.10;99.90
13835;DHT22;6988;52.614;13.500;2022-12-07T18:12:09;2.10;99.90
13835;DHT22;6988;52.614;13.500;2022-12-07T18:17:00;2.10;99.90
13835;DHT22;6988;52.614;13.500;2022-12-07T18:21:52;2.00;99.90
13835;DHT22;6988;52.614;13.500;2022-12-07T18:26:46;1.90;99.90
13835;DHT22;6988;52.614;13.500;2022-12-07T18:31:38;1.90;99.90
13835;DHT22;6988;52.614;13.500;2022-12-07T18:36:30;1.90;99.90
13835;DHT22;6988;52.614;13.500;2022-12-07T18:41:22;1.90;99.90
13835;DHT22;6988;52.614;13.500;2022-12-07T18:46:17;1.90;99.90
13835;DHT22;6988;52.614;13.500;2022-12-07T18:51:11;1.80;99.90
13835;DHT22;6988;52.614;13.500;2022-12-07T18:56:06;1.70;99.90
13835;DHT22;6988;52.614;13.500;2022-12-07T19:01:03;1.70;99.90
13835;DHT22;6988;52.614;13.500;2022-12-07T19:05:56;1.70;99.90
13835;DHT22;6988;52.614;13.500;2022-12-07T19:10:48;1.70;99.90
13835;DHT22;6988;52.614;13.500;2022-12-07T19:15:40;1.70;99.90
13835;DHT22;6988;52.614;13.500;2022-12-07T19:20:32;1.70;99.90
13835;DHT22;6988;52.614;13.500;2022-12-07T19:25:26;1.70;99.90
13835;DHT22;6988;52.614;13.500;2022-12-07T19:30:18;1.60;99.90
13835;DHT22;6988;52.614;13.500;2022-12-07T19:35:09;1.60;99.90
13835;DHT22;6988;52.614;13.500;2022-12-07T19:40:01;1.60;99.90
13835;DHT22;6988;52.614;13.500;2022-12-07T19:44:55;1.50;99.90
13835;DHT22;6988;52.614;13.500;2022-12-07T19:49:47;1.40;99.90
13835;DHT22;6988;52.614;13.500;2022-12-07T19:54:39;1.40;99.90
13835;DHT22;6988;52.614;13.500;2022-12-07T19:59:31;1.30;99.90
13835;DHT22;6988;52.614;13.500;2022-12-07T20:04:27;1.30;99.90
13835;DHT22;6988;52.614;13.500;2022-12-07T20:09:22;1.20;99.90
13835;DHT22;6988;52.614;13.500;2022-12-07T20:14:14;1.30;99.90
13835;DHT22;6988;52.614;13.500;2022-12-07T20:19:07;1.20;99.90
13835;DHT22;6988;52.614;13.500;2022-12-07T20:24:02;1.20;99.90
13835;DHT22;6988;52.614;13.500;2022-12-07T20:28:55;1.20;99.90
13835;DHT22;6988;52.614;13.500;2022-12-07T20:33:48;1.10;99.90
13835;DHT22;6988;52.614;13.500;2022-12-07T20:38:39;1.10;99.90
13835;DHT22;6988;52.614;13.500;2022-12-07T20:43:33;1.00;99.90
13835;DHT22;6988;52.614;13.500;2022-12-07T20:48:26;1.00;99.90
13835;DHT22;6988;52.614;13.500;2022-12-07T20:53:18;1.00;99.90
13835;DHT22;6988;52.614;13.500;2022-12-07T20:58:10;1.00;99.90
13835;DHT22;6988;52.614;13.500;2022-12-07T21:03:03;1.00;99.90
13835;DHT22;6988;52.614;13.500;2022-12-07T21:07:56;0.90;99.90
13835;DHT22;6988;52.614;13.500;2022-12-07T21:12:47;0.90;99.90
13835;DHT22;6988;52.614;13.500;2022-12-07T21:17:39;1.00;99.90
13835;DHT22;6988;52.614;13.500;2022-12-07T21:22:32;1.10;99.90
13835;DHT22;6988;52.614;13.500;2022-12-07T21:27:24;0.90;99.90
13835;DHT22;6988;52.614;13.500;2022-12-07T21:32:16;0.90;99.90
13835;DHT22;6988;52.614;13.500;2022-12-07T21:37:07;0.80;99.90
13835;DHT22;6988;52.614;13.500;2022-12-07T21:42:00;0.90;99.90
13835;DHT22;6988;52.614;13.500;2022-12-07T21:46:52;0.70;99.90
13835;DHT22;6988;52.614;13.500;2022-12-07T21:51:44;0.70;99.90
13835;DHT22;6988;52.614;13.500;2022-12-07T21:56:37;0.70;99.90
13835;DHT22;6988;52.614;13.500;2022-12-07T22:01:33;0.80;99.90
13835;DHT22;6988;52.614;13.500;2022-12-07T22:06:28;0.70;99.90
13835;DHT22;6988;52.614;13.500;2022-12-07T22:11:19;0.60;99.90
13835;DHT22;6988;52.614;13.500;2022-12-07T22:16:11;0.60;99.90
13835;DHT22;6988;52.614;13.500;2022-12-07T22:21:05;0.70;99.90
13835;DHT22;6988;52.614;13.500;2022-12-07T22:25:56;0.70;99.90
13835;DHT22;6988;52.614;13.500;2022-12-07T22:30:48;0.80;99.90
13835;DHT22;6988;52.614;13.500;2022-12-07T22:35:40;0.70;99.90
13835;DHT22;6988;52.614;13.500;2022-12-07T22:40:33;0.80;99.90
13835;DHT22;6988;52.614;13.500;2022-12-07T22:45:25;0.70;99.90
13835;DHT22;6988;52.614;13.500;2022-12-07T23:04:55;0.70;99.90
13835;DHT22;6988;52.614;13.500;2022-12-07T23:09:46;0.80;99.90
13835;DHT22;6988;52.614;13.500;2022-12-07T23:14:38;0.60;99.90
13835;DHT22;6988;52.614;13.500;2022-12-07T23:19:30;0.80;99.90
13835;DHT22;6988;52.614;13.500;2022-12-07T23:24:23;0.70;99.90
13835;DHT22;6988;52.614;13.500;2022-12-07T23:29:15;0.70;99.90
13835;DHT22;6988;52.614;13.500;2022-12-07T23:34:08;0.60;99.90
13835;DHT22;6988;52.614;13.500;2022-12-07T23:39:00;0.60;99.90
13835;DHT22;6988;52.614;13.500;2022-12-07T23:43:54;0.60;99.90
13835;DHT22;6988;52.614;13.500;2022-12-07T23:48:48;0.70;99.90
13835;DHT22;6988;52.614;13.500;2022-12-07T23:53:43;0.60;99.90
13835;DHT22;6988;52.614;13.500;2022-12-07T23:58:36;0.60;99.90
